<?xml version="1.0" encoding="UTF-8" standalone="no" ?>
<gpx xmlns="http://www.topografix.com/GPX/1/1" xmlns:xsi="http://www.w3.org/2001/XMLSchema-instance" xsi:schemaLocation="http://www.topografix.com/GPX/1/1 http://www.topografix.com/GPX/1/1/gpx.xsd" version="1.1" creator="VisuGPX - https://www.visugpx.com">
  <metadata>
    <name>Tour dans l'Estérel au départ de Théoule</name>
    <desc><![CDATA[Départ de Théoule -> Ecureuil -> Trois Termes -> Violette -> Mal Infernet -> Lentisque -> Théoule]]></desc>
  </metadata>
  <trk>
    <name><![CDATA[Estérel Théoule]]></name>
    <trkseg>
      <trkpt lat="43.50375" lon="6.93729">
        <ele>151.5449219</ele>
        <time>2010-02-06T08:20:35Z</time>
      </trkpt>
      <trkpt lat="43.50285" lon="6.93691">
        <ele>17.9217529</ele>
        <time>2010-02-06T08:25:17Z</time>
      </trkpt>
      <trkpt lat="43.50014" lon="6.93707">
        <ele>26.0928955</ele>
        <time>2010-02-06T08:26:56Z</time>
      </trkpt>
      <trkpt lat="43.49768" lon="6.93606">
        <ele>52.5291748</ele>
        <time>2010-02-06T08:29:32Z</time>
      </trkpt>
      <trkpt lat="43.4972" lon="6.93554">
        <ele>54.4517822</ele>
        <time>2010-02-06T08:29:59Z</time>
      </trkpt>
      <trkpt lat="43.4969" lon="6.93554">
        <ele>55.8937988</ele>
        <time>2010-02-06T08:30:12Z</time>
      </trkpt>
      <trkpt lat="43.49654" lon="6.93627">
        <ele>55.8937988</ele>
        <time>2010-02-06T08:30:31Z</time>
      </trkpt>
      <trkpt lat="43.49617" lon="6.93647">
        <ele>56.8551025</ele>
        <time>2010-02-06T08:30:47Z</time>
      </trkpt>
      <trkpt lat="43.49666" lon="6.93486">
        <ele>70.7941895</ele>
        <time>2010-02-06T08:31:44Z</time>
      </trkpt>
      <trkpt lat="43.49655" lon="6.93422">
        <ele>75.1202393</ele>
        <time>2010-02-06T08:32:06Z</time>
      </trkpt>
      <trkpt lat="43.49587" lon="6.93362">
        <ele>82.3300781</ele>
        <time>2010-02-06T08:32:51Z</time>
      </trkpt>
      <trkpt lat="43.49569" lon="6.93355">
        <ele>82.810791</ele>
        <time>2010-02-06T08:33:22Z</time>
      </trkpt>
      <trkpt lat="43.49598" lon="6.93325">
        <ele>85.2139893</ele>
        <time>2010-02-06T08:33:42Z</time>
      </trkpt>
      <trkpt lat="43.49616" lon="6.93239">
        <ele>90.0206299</ele>
        <time>2010-02-06T08:34:09Z</time>
      </trkpt>
      <trkpt lat="43.4959" lon="6.93215">
        <ele>90.9819336</ele>
        <time>2010-02-06T08:34:20Z</time>
      </trkpt>
      <trkpt lat="43.49579" lon="6.93183">
        <ele>90.0206299</ele>
        <time>2010-02-06T08:34:30Z</time>
      </trkpt>
      <trkpt lat="43.49632" lon="6.93111">
        <ele>95.7884521</ele>
        <time>2010-02-06T08:34:57Z</time>
      </trkpt>
      <trkpt lat="43.49638" lon="6.93062">
        <ele>99.6337891</ele>
        <time>2010-02-06T08:35:11Z</time>
      </trkpt>
      <trkpt lat="43.49504" lon="6.92831">
        <ele>114.0535889</ele>
        <time>2010-02-06T08:36:58Z</time>
      </trkpt>
      <trkpt lat="43.49428" lon="6.92495">
        <ele>136.1639404</ele>
        <time>2010-02-06T08:40:14Z</time>
      </trkpt>
      <trkpt lat="43.49426" lon="6.92451">
        <ele>137.605835</ele>
        <time>2010-02-06T08:40:26Z</time>
      </trkpt>
      <trkpt lat="43.49436" lon="6.92491">
        <ele>139.0478516</ele>
        <time>2010-02-06T08:40:46Z</time>
      </trkpt>
      <trkpt lat="43.4947" lon="6.92544">
        <ele>141.9317627</ele>
        <time>2010-02-06T08:41:03Z</time>
      </trkpt>
      <trkpt lat="43.4953" lon="6.92538">
        <ele>148.6610107</ele>
        <time>2010-02-06T08:41:23Z</time>
      </trkpt>
      <trkpt lat="43.49521" lon="6.92398">
        <ele>154.9095459</ele>
        <time>2010-02-06T08:42:08Z</time>
      </trkpt>
      <trkpt lat="43.49552" lon="6.92345">
        <ele>158.7547607</ele>
        <time>2010-02-06T08:42:27Z</time>
      </trkpt>
      <trkpt lat="43.49552" lon="6.92203">
        <ele>167.8873291</ele>
        <time>2010-02-06T08:43:12Z</time>
      </trkpt>
      <trkpt lat="43.49491" lon="6.92167">
        <ele>174.6165771</ele>
        <time>2010-02-06T08:43:51Z</time>
      </trkpt>
      <trkpt lat="43.49467" lon="6.92104">
        <ele>178.4619141</ele>
        <time>2010-02-06T08:44:16Z</time>
      </trkpt>
      <trkpt lat="43.49422" lon="6.92058">
        <ele>181.826416</ele>
        <time>2010-02-06T08:44:43Z</time>
      </trkpt>
      <trkpt lat="43.49489" lon="6.91955">
        <ele>190.4783936</ele>
        <time>2010-02-06T08:45:26Z</time>
      </trkpt>
      <trkpt lat="43.49523" lon="6.91955">
        <ele>193.8430176</ele>
        <time>2010-02-06T08:45:42Z</time>
      </trkpt>
      <trkpt lat="43.49568" lon="6.91876">
        <ele>199.130127</ele>
        <time>2010-02-06T08:46:18Z</time>
      </trkpt>
      <trkpt lat="43.49648" lon="6.91929">
        <ele>208.2628174</ele>
        <time>2010-02-06T08:46:59Z</time>
      </trkpt>
      <trkpt lat="43.49702" lon="6.91998">
        <ele>213.0693359</ele>
        <time>2010-02-06T08:47:27Z</time>
      </trkpt>
      <trkpt lat="43.49743" lon="6.9216">
        <ele>224.1245117</ele>
        <time>2010-02-06T08:48:16Z</time>
      </trkpt>
      <trkpt lat="43.498" lon="6.92222">
        <ele>229.892334</ele>
        <time>2010-02-06T08:48:43Z</time>
      </trkpt>
      <trkpt lat="43.49816" lon="6.92205">
        <ele>232.7764893</ele>
        <time>2010-02-06T08:49:29Z</time>
      </trkpt>
      <trkpt lat="43.49686" lon="6.91902">
        <ele>238.5443115</ele>
        <time>2010-02-06T08:50:57Z</time>
      </trkpt>
      <trkpt lat="43.49651" lon="6.91756">
        <ele>245.7541504</ele>
        <time>2010-02-06T08:53:52Z</time>
      </trkpt>
      <trkpt lat="43.497" lon="6.91567">
        <ele>247.6767578</ele>
        <time>2010-02-06T08:55:02Z</time>
      </trkpt>
      <trkpt lat="43.49743" lon="6.9154">
        <ele>248.1575928</ele>
        <time>2010-02-06T08:55:10Z</time>
      </trkpt>
      <trkpt lat="43.49811" lon="6.91567">
        <ele>248.1575928</ele>
        <time>2010-02-06T08:55:19Z</time>
      </trkpt>
      <trkpt lat="43.49885" lon="6.91559">
        <ele>245.7541504</ele>
        <time>2010-02-06T08:55:30Z</time>
      </trkpt>
      <trkpt lat="43.49898" lon="6.91457">
        <ele>246.7154541</ele>
        <time>2010-02-06T08:55:43Z</time>
      </trkpt>
      <trkpt lat="43.49711" lon="6.91213">
        <ele>244.3122559</ele>
        <time>2010-02-06T08:56:38Z</time>
      </trkpt>
      <trkpt lat="43.49689" lon="6.90861">
        <ele>245.2734375</ele>
        <time>2010-02-06T08:57:37Z</time>
      </trkpt>
      <trkpt lat="43.49627" lon="6.90721">
        <ele>242.3896484</ele>
        <time>2010-02-06T08:57:55Z</time>
      </trkpt>
      <trkpt lat="43.49558" lon="6.90629">
        <ele>240.467041</ele>
        <time>2010-02-06T08:58:12Z</time>
      </trkpt>
      <trkpt lat="43.49527" lon="6.90617">
        <ele>240.467041</ele>
        <time>2010-02-06T08:58:20Z</time>
      </trkpt>
      <trkpt lat="43.4952" lon="6.90477">
        <ele>239.5054932</ele>
        <time>2010-02-06T09:00:50Z</time>
      </trkpt>
      <trkpt lat="43.49485" lon="6.9046">
        <ele>237.5828857</ele>
        <time>2010-02-06T09:00:54Z</time>
      </trkpt>
      <trkpt lat="43.49498" lon="6.90388">
        <ele>233.7376709</ele>
        <time>2010-02-06T09:00:58Z</time>
      </trkpt>
      <trkpt lat="43.49422" lon="6.90498">
        <ele>227.4891357</ele>
        <time>2010-02-06T09:01:22Z</time>
      </trkpt>
      <trkpt lat="43.49373" lon="6.90482">
        <ele>223.163208</ele>
        <time>2010-02-06T09:01:27Z</time>
      </trkpt>
      <trkpt lat="43.49335" lon="6.90585">
        <ele>211.1467285</ele>
        <time>2010-02-06T09:01:41Z</time>
      </trkpt>
      <trkpt lat="43.49191" lon="6.90602">
        <ele>185.1911621</ele>
        <time>2010-02-06T09:02:20Z</time>
      </trkpt>
      <trkpt lat="43.49187" lon="6.90634">
        <ele>183.2684326</ele>
        <time>2010-02-06T09:02:23Z</time>
      </trkpt>
      <trkpt lat="43.49154" lon="6.90612">
        <ele>178.4619141</ele>
        <time>2010-02-06T09:02:31Z</time>
      </trkpt>
      <trkpt lat="43.49181" lon="6.90598">
        <ele>172.6939697</ele>
        <time>2010-02-06T09:02:41Z</time>
      </trkpt>
      <trkpt lat="43.49144" lon="6.90581">
        <ele>168.368042</ele>
        <time>2010-02-06T09:02:52Z</time>
      </trkpt>
      <trkpt lat="43.49175" lon="6.90566">
        <ele>162.6000977</ele>
        <time>2010-02-06T09:03:05Z</time>
      </trkpt>
      <trkpt lat="43.4914" lon="6.9057">
        <ele>158.7547607</ele>
        <time>2010-02-06T09:03:10Z</time>
      </trkpt>
      <trkpt lat="43.48978" lon="6.9043">
        <ele>130.876709</ele>
        <time>2010-02-06T09:04:45Z</time>
      </trkpt>
      <trkpt lat="43.48854" lon="6.90396">
        <ele>123.1861572</ele>
        <time>2010-02-06T09:05:23Z</time>
      </trkpt>
      <trkpt lat="43.48659" lon="6.90092">
        <ele>108.2856445</ele>
        <time>2010-02-06T09:06:22Z</time>
      </trkpt>
      <trkpt lat="43.48666" lon="6.89903">
        <ele>102.998291</ele>
        <time>2010-02-06T09:07:15Z</time>
      </trkpt>
      <trkpt lat="43.486" lon="6.89594">
        <ele>98.1918945</ele>
        <time>2010-02-06T09:10:16Z</time>
      </trkpt>
      <trkpt lat="43.48356" lon="6.89168">
        <ele>80.4074707</ele>
        <time>2010-02-06T09:11:24Z</time>
      </trkpt>
      <trkpt lat="43.48336" lon="6.88966">
        <ele>81.8493652</ele>
        <time>2010-02-06T09:12:25Z</time>
      </trkpt>
      <trkpt lat="43.48329" lon="6.88931">
        <ele>78.4847412</ele>
        <time>2010-02-06T09:12:32Z</time>
      </trkpt>
      <trkpt lat="43.48236" lon="6.88829">
        <ele>67.9102783</ele>
        <time>2010-02-06T09:12:55Z</time>
      </trkpt>
      <trkpt lat="43.48069" lon="6.88757">
        <ele>70.7941895</ele>
        <time>2010-02-06T09:13:43Z</time>
      </trkpt>
      <trkpt lat="43.4788" lon="6.88718">
        <ele>64.5456543</ele>
        <time>2010-02-06T09:14:37Z</time>
      </trkpt>
      <trkpt lat="43.47929" lon="6.8857">
        <ele>72.2362061</ele>
        <time>2010-02-06T09:20:25Z</time>
      </trkpt>
      <trkpt lat="43.47987" lon="6.88525">
        <ele>71.2749023</ele>
        <time>2010-02-06T09:20:47Z</time>
      </trkpt>
      <trkpt lat="43.48676" lon="6.88172">
        <ele>95.7884521</ele>
        <time>2010-02-06T09:25:11Z</time>
      </trkpt>
      <trkpt lat="43.48854" lon="6.88233">
        <ele>100.114502</ele>
        <time>2010-02-06T09:26:05Z</time>
      </trkpt>
      <trkpt lat="43.49003" lon="6.88195">
        <ele>112.1309814</ele>
        <time>2010-02-06T09:27:07Z</time>
      </trkpt>
      <trkpt lat="43.49032" lon="6.88202">
        <ele>114.0535889</ele>
        <time>2010-02-06T09:27:22Z</time>
      </trkpt>
      <trkpt lat="43.49163" lon="6.88274">
        <ele>119.8214111</ele>
        <time>2010-02-06T09:28:13Z</time>
      </trkpt>
      <trkpt lat="43.4928" lon="6.88216">
        <ele>118.8601074</ele>
        <time>2010-02-06T09:29:05Z</time>
      </trkpt>
      <trkpt lat="43.49366" lon="6.88224">
        <ele>127.0313721</ele>
        <time>2010-02-06T09:29:57Z</time>
      </trkpt>
      <trkpt lat="43.49841" lon="6.88457">
        <ele>217.8759766</ele>
        <time>2010-02-06T09:39:51Z</time>
      </trkpt>
      <trkpt lat="43.50054" lon="6.88439">
        <ele>262.0965576</ele>
        <time>2010-02-06T09:44:03Z</time>
      </trkpt>
      <trkpt lat="43.50164" lon="6.8852">
        <ele>282.2843018</ele>
        <time>2010-02-06T09:46:23Z</time>
      </trkpt>
      <trkpt lat="43.50254" lon="6.88395">
        <ele>308.720459</ele>
        <time>2010-02-06T09:52:10Z</time>
      </trkpt>
      <trkpt lat="43.50209" lon="6.88243">
        <ele>310.1624756</ele>
        <time>2010-02-06T09:53:44Z</time>
      </trkpt>
      <trkpt lat="43.50165" lon="6.88217">
        <ele>311.6044922</ele>
        <time>2010-02-06T09:53:58Z</time>
      </trkpt>
      <trkpt lat="43.50127" lon="6.88147">
        <ele>313.0465088</ele>
        <time>2010-02-06T09:54:17Z</time>
      </trkpt>
      <trkpt lat="43.50128" lon="6.88104">
        <ele>313.0465088</ele>
        <time>2010-02-06T09:54:27Z</time>
      </trkpt>
      <trkpt lat="43.50107" lon="6.87936">
        <ele>308.720459</ele>
        <time>2010-02-06T09:54:52Z</time>
      </trkpt>
      <trkpt lat="43.5016" lon="6.87669">
        <ele>305.355957</ele>
        <time>2010-02-06T09:55:24Z</time>
      </trkpt>
      <trkpt lat="43.5002" lon="6.877">
        <ele>299.5880127</ele>
        <time>2010-02-06T09:55:41Z</time>
      </trkpt>
      <trkpt lat="43.49892" lon="6.87788">
        <ele>287.5714111</ele>
        <time>2010-02-06T09:55:58Z</time>
      </trkpt>
      <trkpt lat="43.49838" lon="6.87718">
        <ele>282.7650146</ele>
        <time>2010-02-06T09:56:09Z</time>
      </trkpt>
      <trkpt lat="43.49668" lon="6.87688">
        <ele>276.9970703</ele>
        <time>2010-02-06T09:56:33Z</time>
      </trkpt>
      <trkpt lat="43.49567" lon="6.87794">
        <ele>272.1904297</ele>
        <time>2010-02-06T09:56:52Z</time>
      </trkpt>
      <trkpt lat="43.49407" lon="6.87873">
        <ele>268.3450928</ele>
        <time>2010-02-06T09:57:15Z</time>
      </trkpt>
      <trkpt lat="43.49348" lon="6.87872">
        <ele>265.9418945</ele>
        <time>2010-02-06T09:57:23Z</time>
      </trkpt>
      <trkpt lat="43.4932" lon="6.87811">
        <ele>263.5385742</ele>
        <time>2010-02-06T09:57:31Z</time>
      </trkpt>
      <trkpt lat="43.49338" lon="6.87599">
        <ele>259.2126465</ele>
        <time>2010-02-06T09:57:59Z</time>
      </trkpt>
      <trkpt lat="43.49392" lon="6.87484">
        <ele>257.770752</ele>
        <time>2010-02-06T09:58:18Z</time>
      </trkpt>
      <trkpt lat="43.49479" lon="6.87412">
        <ele>257.770752</ele>
        <time>2010-02-06T09:58:36Z</time>
      </trkpt>
      <trkpt lat="43.49494" lon="6.87366">
        <ele>257.2900391</ele>
        <time>2010-02-06T09:58:43Z</time>
      </trkpt>
      <trkpt lat="43.49438" lon="6.87244">
        <ele>256.8093262</ele>
        <time>2010-02-06T09:59:00Z</time>
      </trkpt>
      <trkpt lat="43.49399" lon="6.8711">
        <ele>253.4447021</ele>
        <time>2010-02-06T09:59:28Z</time>
      </trkpt>
      <trkpt lat="43.49546" lon="6.8692">
        <ele>266.4224854</ele>
        <time>2010-02-06T10:00:57Z</time>
      </trkpt>
      <trkpt lat="43.49743" lon="6.86434">
        <ele>296.7041016</ele>
        <time>2010-02-06T10:04:02Z</time>
      </trkpt>
      <trkpt lat="43.49767" lon="6.86401">
        <ele>299.1072998</ele>
        <time>2010-02-06T10:04:20Z</time>
      </trkpt>
      <trkpt lat="43.49899" lon="6.86319">
        <ele>309.6818848</ele>
        <time>2010-02-06T10:05:30Z</time>
      </trkpt>
      <trkpt lat="43.50007" lon="6.86372">
        <ele>318.3336182</ele>
        <time>2010-02-06T10:06:26Z</time>
      </trkpt>
      <trkpt lat="43.50123" lon="6.86356">
        <ele>327.4661865</ele>
        <time>2010-02-06T10:07:20Z</time>
      </trkpt>
      <trkpt lat="43.50158" lon="6.86375">
        <ele>330.3502197</ele>
        <time>2010-02-06T10:07:40Z</time>
      </trkpt>
      <trkpt lat="43.50198" lon="6.86469">
        <ele>339.0020752</ele>
        <time>2010-02-06T10:08:24Z</time>
      </trkpt>
      <trkpt lat="43.5021" lon="6.86493">
        <ele>340.9246826</ele>
        <time>2010-02-06T10:08:37Z</time>
      </trkpt>
      <trkpt lat="43.50241" lon="6.86514">
        <ele>343.8085938</ele>
        <time>2010-02-06T10:08:55Z</time>
      </trkpt>
      <trkpt lat="43.50453" lon="6.86404">
        <ele>366.880249</ele>
        <time>2010-02-06T10:10:57Z</time>
      </trkpt>
      <trkpt lat="43.50463" lon="6.86408">
        <ele>367.3609619</ele>
        <time>2010-02-06T10:13:16Z</time>
      </trkpt>
      <trkpt lat="43.50417" lon="6.8624">
        <ele>369.7642822</ele>
        <time>2010-02-06T10:17:07Z</time>
      </trkpt>
      <trkpt lat="43.50435" lon="6.86173">
        <ele>371.6868896</ele>
        <time>2010-02-06T10:17:30Z</time>
      </trkpt>
      <trkpt lat="43.5039" lon="6.86038">
        <ele>377.9354248</ele>
        <time>2010-02-06T10:18:15Z</time>
      </trkpt>
      <trkpt lat="43.50308" lon="6.85799">
        <ele>385.1453857</ele>
        <time>2010-02-06T10:19:32Z</time>
      </trkpt>
      <trkpt lat="43.50275" lon="6.85735">
        <ele>383.2226563</ele>
        <time>2010-02-06T10:19:47Z</time>
      </trkpt>
      <trkpt lat="43.50294" lon="6.85628">
        <ele>388.0292969</ele>
        <time>2010-02-06T10:20:14Z</time>
      </trkpt>
      <trkpt lat="43.50275" lon="6.85518">
        <ele>389.9519043</ele>
        <time>2010-02-06T10:20:50Z</time>
      </trkpt>
      <trkpt lat="43.50316" lon="6.85279">
        <ele>399.0843506</ele>
        <time>2010-02-06T10:22:12Z</time>
      </trkpt>
      <trkpt lat="43.50426" lon="6.85226">
        <ele>408.217041</ele>
        <time>2010-02-06T10:23:08Z</time>
      </trkpt>
      <trkpt lat="43.50411" lon="6.85111">
        <ele>415.4268799</ele>
        <time>2010-02-06T10:23:49Z</time>
      </trkpt>
      <trkpt lat="43.50375" lon="6.85028">
        <ele>418.7915039</ele>
        <time>2010-02-06T10:24:23Z</time>
      </trkpt>
      <trkpt lat="43.50371" lon="6.84982">
        <ele>420.2333984</ele>
        <time>2010-02-06T10:24:43Z</time>
      </trkpt>
      <trkpt lat="43.50484" lon="6.84974">
        <ele>426.0013428</ele>
        <time>2010-02-06T10:25:42Z</time>
      </trkpt>
      <trkpt lat="43.50493" lon="6.8494">
        <ele>427.9239502</ele>
        <time>2010-02-06T10:25:53Z</time>
      </trkpt>
      <trkpt lat="43.50449" lon="6.846">
        <ele>436.5759277</ele>
        <time>2010-02-06T10:27:32Z</time>
      </trkpt>
      <trkpt lat="43.50486" lon="6.84502">
        <ele>425.520752</ele>
        <time>2010-02-06T10:30:27Z</time>
      </trkpt>
      <trkpt lat="43.50417" lon="6.84542">
        <ele>406.7749023</ele>
        <time>2010-02-06T10:31:01Z</time>
      </trkpt>
      <trkpt lat="43.50366" lon="6.84644">
        <ele>390.913208</ele>
        <time>2010-02-06T10:31:57Z</time>
      </trkpt>
      <trkpt lat="43.50362" lon="6.84644">
        <ele>387.548584</ele>
        <time>2010-02-06T10:32:23Z</time>
      </trkpt>
      <trkpt lat="43.50382" lon="6.84498">
        <ele>363.9963379</ele>
        <time>2010-02-06T10:34:05Z</time>
      </trkpt>
      <trkpt lat="43.50363" lon="6.84493">
        <ele>364.9576416</ele>
        <time>2010-02-06T10:34:41Z</time>
      </trkpt>
      <trkpt lat="43.50328" lon="6.84503">
        <ele>363.0350342</ele>
        <time>2010-02-06T10:35:17Z</time>
      </trkpt>
      <trkpt lat="43.50313" lon="6.84638">
        <ele>361.5931396</ele>
        <time>2010-02-06T10:35:48Z</time>
      </trkpt>
      <trkpt lat="43.50248" lon="6.84636">
        <ele>365.9189453</ele>
        <time>2010-02-06T10:36:21Z</time>
      </trkpt>
      <trkpt lat="43.50186" lon="6.84551">
        <ele>372.6481934</ele>
        <time>2010-02-06T10:36:56Z</time>
      </trkpt>
      <trkpt lat="43.50149" lon="6.84534">
        <ele>367.8415527</ele>
        <time>2010-02-06T10:37:08Z</time>
      </trkpt>
      <trkpt lat="43.5008" lon="6.84404">
        <ele>355.8251953</ele>
        <time>2010-02-06T10:37:54Z</time>
      </trkpt>
      <trkpt lat="43.50017" lon="6.84352">
        <ele>351.4991455</ele>
        <time>2010-02-06T10:38:10Z</time>
      </trkpt>
      <trkpt lat="43.49972" lon="6.84408">
        <ele>348.6152344</ele>
        <time>2010-02-06T10:38:23Z</time>
      </trkpt>
      <trkpt lat="43.49981" lon="6.84686">
        <ele>334.6761475</ele>
        <time>2010-02-06T10:39:19Z</time>
      </trkpt>
      <trkpt lat="43.49934" lon="6.84749">
        <ele>331.3115234</ele>
        <time>2010-02-06T10:39:33Z</time>
      </trkpt>
      <trkpt lat="43.49839" lon="6.84757">
        <ele>323.1403809</ele>
        <time>2010-02-06T10:40:00Z</time>
      </trkpt>
      <trkpt lat="43.49827" lon="6.84665">
        <ele>317.8530273</ele>
        <time>2010-02-06T10:40:12Z</time>
      </trkpt>
      <trkpt lat="43.49734" lon="6.84445">
        <ele>306.7978516</ele>
        <time>2010-02-06T10:40:51Z</time>
      </trkpt>
      <trkpt lat="43.49654" lon="6.84411">
        <ele>304.8752441</ele>
        <time>2010-02-06T10:41:01Z</time>
      </trkpt>
      <trkpt lat="43.4967" lon="6.84366">
        <ele>301.991333</ele>
        <time>2010-02-06T10:41:07Z</time>
      </trkpt>
      <trkpt lat="43.49652" lon="6.84376">
        <ele>300.5493164</ele>
        <time>2010-02-06T10:41:10Z</time>
      </trkpt>
      <trkpt lat="43.49535" lon="6.84458">
        <ele>290.9361572</ele>
        <time>2010-02-06T10:41:49Z</time>
      </trkpt>
      <trkpt lat="43.49492" lon="6.84538">
        <ele>287.5714111</ele>
        <time>2010-02-06T10:42:54Z</time>
      </trkpt>
      <trkpt lat="43.4951" lon="6.84607">
        <ele>286.1295166</ele>
        <time>2010-02-06T10:45:06Z</time>
      </trkpt>
      <trkpt lat="43.49537" lon="6.84777">
        <ele>274.1130371</ele>
        <time>2010-02-06T10:47:03Z</time>
      </trkpt>
      <trkpt lat="43.49498" lon="6.84958">
        <ele>262.5771484</ele>
        <time>2010-02-06T10:47:39Z</time>
      </trkpt>
      <trkpt lat="43.49565" lon="6.8509">
        <ele>253.4447021</ele>
        <time>2010-02-06T10:48:05Z</time>
      </trkpt>
      <trkpt lat="43.49388" lon="6.85181">
        <ele>237.5828857</ele>
        <time>2010-02-06T10:48:50Z</time>
      </trkpt>
      <trkpt lat="43.49317" lon="6.85269">
        <ele>227.9697266</ele>
        <time>2010-02-06T10:49:08Z</time>
      </trkpt>
      <trkpt lat="43.49269" lon="6.85276">
        <ele>226.0471191</ele>
        <time>2010-02-06T10:49:14Z</time>
      </trkpt>
      <trkpt lat="43.49245" lon="6.8507">
        <ele>213.0693359</ele>
        <time>2010-02-06T10:49:56Z</time>
      </trkpt>
      <trkpt lat="43.49142" lon="6.85029">
        <ele>203.9368896</ele>
        <time>2010-02-06T10:50:19Z</time>
      </trkpt>
      <trkpt lat="43.49067" lon="6.85077">
        <ele>199.6108398</ele>
        <time>2010-02-06T10:50:35Z</time>
      </trkpt>
      <trkpt lat="43.49042" lon="6.85388">
        <ele>173.6552734</ele>
        <time>2010-02-06T10:51:43Z</time>
      </trkpt>
      <trkpt lat="43.48999" lon="6.85416">
        <ele>175.09729</ele>
        <time>2010-02-06T10:52:02Z</time>
      </trkpt>
      <trkpt lat="43.48968" lon="6.85366">
        <ele>175.09729</ele>
        <time>2010-02-06T10:52:43Z</time>
      </trkpt>
      <trkpt lat="43.48932" lon="6.8537">
        <ele>176.0585938</ele>
        <time>2010-02-06T10:53:02Z</time>
      </trkpt>
      <trkpt lat="43.48868" lon="6.85421">
        <ele>175.09729</ele>
        <time>2010-02-06T10:54:03Z</time>
      </trkpt>
      <trkpt lat="43.4889" lon="6.85491">
        <ele>172.2132568</ele>
        <time>2010-02-06T10:54:17Z</time>
      </trkpt>
      <trkpt lat="43.48838" lon="6.85583">
        <ele>167.4067383</ele>
        <time>2010-02-06T10:54:32Z</time>
      </trkpt>
      <trkpt lat="43.48809" lon="6.85754">
        <ele>164.0421143</ele>
        <time>2010-02-06T10:58:12Z</time>
      </trkpt>
      <trkpt lat="43.48819" lon="6.85936">
        <ele>147.699707</ele>
        <time>2010-02-06T11:01:42Z</time>
      </trkpt>
      <trkpt lat="43.48804" lon="6.85979">
        <ele>144.3352051</ele>
        <time>2010-02-06T11:01:47Z</time>
      </trkpt>
      <trkpt lat="43.48702" lon="6.86076">
        <ele>130.876709</ele>
        <time>2010-02-06T11:02:10Z</time>
      </trkpt>
      <trkpt lat="43.48672" lon="6.86122">
        <ele>121.7441406</ele>
        <time>2010-02-06T11:02:17Z</time>
      </trkpt>
      <trkpt lat="43.48763" lon="6.86166">
        <ele>121.2635498</ele>
        <time>2010-02-06T11:02:47Z</time>
      </trkpt>
      <trkpt lat="43.48683" lon="6.86199">
        <ele>127.9925537</ele>
        <time>2010-02-06T11:03:29Z</time>
      </trkpt>
      <trkpt lat="43.48673" lon="6.86264">
        <ele>131.8378906</ele>
        <time>2010-02-06T11:03:45Z</time>
      </trkpt>
      <trkpt lat="43.48665" lon="6.86421">
        <ele>136.6446533</ele>
        <time>2010-02-06T11:04:31Z</time>
      </trkpt>
      <trkpt lat="43.48424" lon="6.86601">
        <ele>157.3128662</ele>
        <time>2010-02-06T11:06:32Z</time>
      </trkpt>
      <trkpt lat="43.48415" lon="6.86517">
        <ele>164.0421143</ele>
        <time>2010-02-06T11:07:13Z</time>
      </trkpt>
      <trkpt lat="43.48301" lon="6.86485">
        <ele>170.2906494</ele>
        <time>2010-02-06T11:08:02Z</time>
      </trkpt>
      <trkpt lat="43.482" lon="6.86571">
        <ele>175.09729</ele>
        <time>2010-02-06T11:08:53Z</time>
      </trkpt>
      <trkpt lat="43.48143" lon="6.86657">
        <ele>184.7105713</ele>
        <time>2010-02-06T11:09:32Z</time>
      </trkpt>
      <trkpt lat="43.48135" lon="6.86674">
        <ele>184.2298584</ele>
        <time>2010-02-06T11:09:50Z</time>
      </trkpt>
      <trkpt lat="43.48296" lon="6.86592">
        <ele>202.494873</ele>
        <time>2010-02-06T11:12:34Z</time>
      </trkpt>
      <trkpt lat="43.48378" lon="6.86899">
        <ele>216.9146729</ele>
        <time>2010-02-06T11:14:55Z</time>
      </trkpt>
      <trkpt lat="43.48362" lon="6.86944">
        <ele>214.9919434</ele>
        <time>2010-02-06T11:16:25Z</time>
      </trkpt>
      <trkpt lat="43.48315" lon="6.86981">
        <ele>214.5112305</ele>
        <time>2010-02-06T11:16:41Z</time>
      </trkpt>
      <trkpt lat="43.48271" lon="6.87131">
        <ele>214.9919434</ele>
        <time>2010-02-06T11:17:10Z</time>
      </trkpt>
      <trkpt lat="43.48142" lon="6.8735">
        <ele>214.9919434</ele>
        <time>2010-02-06T11:17:44Z</time>
      </trkpt>
      <trkpt lat="43.47937" lon="6.87349">
        <ele>216.9146729</ele>
        <time>2010-02-06T11:18:26Z</time>
      </trkpt>
      <trkpt lat="43.4788" lon="6.87269">
        <ele>214.5112305</ele>
        <time>2010-02-06T11:18:40Z</time>
      </trkpt>
      <trkpt lat="43.47863" lon="6.86982">
        <ele>218.3565674</ele>
        <time>2010-02-06T11:19:18Z</time>
      </trkpt>
      <trkpt lat="43.47791" lon="6.86896">
        <ele>217.3953857</ele>
        <time>2010-02-06T11:21:24Z</time>
      </trkpt>
      <trkpt lat="43.47738" lon="6.86903">
        <ele>213.5500488</ele>
        <time>2010-02-06T11:23:11Z</time>
      </trkpt>
      <trkpt lat="43.47632" lon="6.87107">
        <ele>206.8206787</ele>
        <time>2010-02-06T11:23:40Z</time>
      </trkpt>
      <trkpt lat="43.47573" lon="6.8716">
        <ele>203.4561768</ele>
        <time>2010-02-06T11:23:50Z</time>
      </trkpt>
      <trkpt lat="43.47509" lon="6.87099">
        <ele>200.5722656</ele>
        <time>2010-02-06T11:24:01Z</time>
      </trkpt>
      <trkpt lat="43.4746" lon="6.86975">
        <ele>196.7269287</ele>
        <time>2010-02-06T11:24:13Z</time>
      </trkpt>
      <trkpt lat="43.47341" lon="6.86865">
        <ele>191.9202881</ele>
        <time>2010-02-06T11:24:30Z</time>
      </trkpt>
      <trkpt lat="43.47263" lon="6.86757">
        <ele>187.1137695</ele>
        <time>2010-02-06T11:24:43Z</time>
      </trkpt>
      <trkpt lat="43.47245" lon="6.86756">
        <ele>184.2298584</ele>
        <time>2010-02-06T11:24:47Z</time>
      </trkpt>
      <trkpt lat="43.47206" lon="6.86888">
        <ele>182.7878418</ele>
        <time>2010-02-06T11:25:05Z</time>
      </trkpt>
      <trkpt lat="43.47157" lon="6.86934">
        <ele>182.3071289</ele>
        <time>2010-02-06T11:25:16Z</time>
      </trkpt>
      <trkpt lat="43.47139" lon="6.86951">
        <ele>181.3458252</ele>
        <time>2010-02-06T11:25:20Z</time>
      </trkpt>
      <trkpt lat="43.4712" lon="6.87147">
        <ele>177.5006104</ele>
        <time>2010-02-06T11:25:46Z</time>
      </trkpt>
      <trkpt lat="43.47016" lon="6.8716">
        <ele>175.09729</ele>
        <time>2010-02-06T11:26:04Z</time>
      </trkpt>
      <trkpt lat="43.46874" lon="6.87196">
        <ele>150.1030273</ele>
        <time>2010-02-06T11:27:16Z</time>
      </trkpt>
      <trkpt lat="43.46755" lon="6.87321">
        <ele>130.876709</ele>
        <time>2010-02-06T11:27:37Z</time>
      </trkpt>
      <trkpt lat="43.46618" lon="6.87246">
        <ele>120.302124</ele>
        <time>2010-02-06T11:28:01Z</time>
      </trkpt>
      <trkpt lat="43.46697" lon="6.874">
        <ele>97.2304688</ele>
        <time>2010-02-06T11:28:39Z</time>
      </trkpt>
      <trkpt lat="43.46695" lon="6.87547">
        <ele>84.7333984</ele>
        <time>2010-02-06T11:29:05Z</time>
      </trkpt>
      <trkpt lat="43.46709" lon="6.87582">
        <ele>79.9266357</ele>
        <time>2010-02-06T11:29:14Z</time>
      </trkpt>
      <trkpt lat="43.46745" lon="6.876">
        <ele>70.7941895</ele>
        <time>2010-02-06T11:29:26Z</time>
      </trkpt>
      <trkpt lat="43.46886" lon="6.87778">
        <ele>44.838623</ele>
        <time>2010-02-06T11:36:43Z</time>
      </trkpt>
      <trkpt lat="43.46465" lon="6.87549">
        <ele>40.9934082</ele>
        <time>2010-02-06T11:38:18Z</time>
      </trkpt>
      <trkpt lat="43.464" lon="6.87674">
        <ele>37.6286621</ele>
        <time>2010-02-06T11:38:37Z</time>
      </trkpt>
      <trkpt lat="43.46155" lon="6.87823">
        <ele>34.2641602</ele>
        <time>2010-02-06T11:39:32Z</time>
      </trkpt>
      <trkpt lat="43.4608" lon="6.87967">
        <ele>44.838623</ele>
        <time>2010-02-06T11:40:26Z</time>
      </trkpt>
      <trkpt lat="43.46" lon="6.87982">
        <ele>54.4517822</ele>
        <time>2010-02-06T11:41:08Z</time>
      </trkpt>
      <trkpt lat="43.45976" lon="6.88353">
        <ele>82.3300781</ele>
        <time>2010-02-06T11:43:29Z</time>
      </trkpt>
      <trkpt lat="43.46187" lon="6.88537">
        <ele>75.6008301</ele>
        <time>2010-02-06T11:44:34Z</time>
      </trkpt>
      <trkpt lat="43.45983" lon="6.88499">
        <ele>91.9432373</ele>
        <time>2010-02-06T11:46:22Z</time>
      </trkpt>
      <trkpt lat="43.45988" lon="6.88606">
        <ele>90.0206299</ele>
        <time>2010-02-06T11:46:53Z</time>
      </trkpt>
      <trkpt lat="43.4602" lon="6.88812">
        <ele>87.1365967</ele>
        <time>2010-02-06T11:47:25Z</time>
      </trkpt>
      <trkpt lat="43.46115" lon="6.89054">
        <ele>91.4625244</ele>
        <time>2010-02-06T11:48:23Z</time>
      </trkpt>
      <trkpt lat="43.46082" lon="6.89235">
        <ele>91.4625244</ele>
        <time>2010-02-06T11:48:57Z</time>
      </trkpt>
      <trkpt lat="43.4611" lon="6.89286">
        <ele>93.3851318</ele>
        <time>2010-02-06T11:49:12Z</time>
      </trkpt>
      <trkpt lat="43.46076" lon="6.89295">
        <ele>90.0206299</ele>
        <time>2010-02-06T11:49:21Z</time>
      </trkpt>
      <trkpt lat="43.46056" lon="6.89363">
        <ele>91.9432373</ele>
        <time>2010-02-06T11:49:32Z</time>
      </trkpt>
      <trkpt lat="43.46084" lon="6.89647">
        <ele>96.2692871</ele>
        <time>2010-02-06T11:50:19Z</time>
      </trkpt>
      <trkpt lat="43.4614" lon="6.89761">
        <ele>103.4790039</ele>
        <time>2010-02-06T11:51:08Z</time>
      </trkpt>
      <trkpt lat="43.4615" lon="6.89861">
        <ele>109.2469482</ele>
        <time>2010-02-06T11:52:17Z</time>
      </trkpt>
      <trkpt lat="43.46186" lon="6.89893">
        <ele>101.1</ele>
      </trkpt>
      <trkpt lat="43.46216" lon="6.9019">
        <ele>110.2</ele>
      </trkpt>
      <trkpt lat="43.4627" lon="6.90398">
        <ele>119.9</ele>
      </trkpt>
      <trkpt lat="43.46375" lon="6.90598">
        <ele>133.5</ele>
      </trkpt>
      <trkpt lat="43.46361" lon="6.9065">
        <ele>134.9</ele>
      </trkpt>
      <trkpt lat="43.46361" lon="6.90609">
        <ele>131.8</ele>
      </trkpt>
      <trkpt lat="43.46221" lon="6.90498">
        <ele>146</ele>
      </trkpt>
      <trkpt lat="43.46148" lon="6.90635">
        <ele>158.2</ele>
      </trkpt>
      <trkpt lat="43.46283" lon="6.90836">
        <ele>158</ele>
      </trkpt>
      <trkpt lat="43.46283" lon="6.90921">
        <ele>145.2</ele>
      </trkpt>
      <trkpt lat="43.46423" lon="6.90914">
        <ele>167.7</ele>
      </trkpt>
      <trkpt lat="43.46507" lon="6.90691">
        <ele>198.3</ele>
      </trkpt>
      <trkpt lat="43.46701" lon="6.90691">
        <ele>217</ele>
      </trkpt>
      <trkpt lat="43.46703" lon="6.90602">
        <ele>225.8</ele>
      </trkpt>
      <trkpt lat="43.46644" lon="6.90431">
        <ele>240.2</ele>
      </trkpt>
      <trkpt lat="43.46871" lon="6.90672">
        <ele>253.8</ele>
      </trkpt>
      <trkpt lat="43.47005" lon="6.90888">
        <ele>263</ele>
      </trkpt>
      <trkpt lat="43.47078" lon="6.90944">
        <ele>277.6</ele>
      </trkpt>
      <trkpt lat="43.47167" lon="6.91077">
        <ele>273.3</ele>
      </trkpt>
      <trkpt lat="43.47356" lon="6.9101">
        <ele>301</ele>
      </trkpt>
      <trkpt lat="43.47331" lon="6.91114">
        <ele>269.3</ele>
      </trkpt>
      <trkpt lat="43.4738" lon="6.912">
        <ele>287.5</ele>
      </trkpt>
      <trkpt lat="43.47396" lon="6.91155">
        <ele>307.3</ele>
      </trkpt>
      <trkpt lat="43.47404" lon="6.9143">
        <ele>276.8</ele>
      </trkpt>
      <trkpt lat="43.47517" lon="6.91441">
        <ele>284.5</ele>
      </trkpt>
      <trkpt lat="43.47566" lon="6.91385">
        <ele>292.9</ele>
      </trkpt>
      <trkpt lat="43.47609" lon="6.914">
        <ele>300.7</ele>
      </trkpt>
      <trkpt lat="43.47612" lon="6.91434">
        <ele>287.8</ele>
      </trkpt>
      <trkpt lat="43.47728" lon="6.9143">
        <ele>305.5</ele>
      </trkpt>
      <trkpt lat="43.47884" lon="6.91189">
        <ele>318.7</ele>
      </trkpt>
      <trkpt lat="43.48059" lon="6.91174">
        <ele>324.6</ele>
      </trkpt>
      <trkpt lat="43.48197" lon="6.91081">
        <ele>318</ele>
      </trkpt>
      <trkpt lat="43.48243" lon="6.91107">
        <ele>314</ele>
      </trkpt>
      <trkpt lat="43.48364" lon="6.91278">
        <ele>309.1</ele>
      </trkpt>
      <trkpt lat="43.48396" lon="6.91274">
        <ele>308.8</ele>
      </trkpt>
      <trkpt lat="43.48431" lon="6.91219">
        <ele>293.7</ele>
      </trkpt>
      <trkpt lat="43.48501" lon="6.91189">
        <ele>302.7</ele>
      </trkpt>
      <trkpt lat="43.48636" lon="6.91003">
        <ele>290.1</ele>
      </trkpt>
      <trkpt lat="43.48733" lon="6.91014">
        <ele>292</ele>
      </trkpt>
      <trkpt lat="43.48763" lon="6.90743">
        <ele>273.5</ele>
      </trkpt>
      <trkpt lat="43.48811" lon="6.9075">
        <ele>270.5</ele>
      </trkpt>
      <trkpt lat="43.48903" lon="6.90851">
        <ele>268.3</ele>
      </trkpt>
      <trkpt lat="43.48995" lon="6.90825">
        <ele>264.5</ele>
      </trkpt>
      <trkpt lat="43.49038" lon="6.90851">
        <ele>260.9</ele>
      </trkpt>
      <trkpt lat="43.49051" lon="6.90973">
        <ele>280.8</ele>
      </trkpt>
      <trkpt lat="43.49143" lon="6.90966">
        <ele>266.5</ele>
      </trkpt>
      <trkpt lat="43.49245" lon="6.90802">
        <ele>257.2</ele>
      </trkpt>
      <trkpt lat="43.49423" lon="6.90643">
        <ele>256.6</ele>
      </trkpt>
      <trkpt lat="43.49423" lon="6.90487">
        <ele>243.1</ele>
      </trkpt>
      <trkpt lat="43.49453" lon="6.90472">
        <ele>245.5</ele>
      </trkpt>
      <trkpt lat="43.49498" lon="6.9039">
        <ele>241.7</ele>
      </trkpt>
      <trkpt lat="43.49485" lon="6.90472">
        <ele>245.6</ele>
      </trkpt>
      <trkpt lat="43.49515" lon="6.90483">
        <ele>237.9</ele>
      </trkpt>
      <trkpt lat="43.49515" lon="6.90587">
        <ele>243.3</ele>
      </trkpt>
      <trkpt lat="43.49666" lon="6.90806">
        <ele>252.8</ele>
      </trkpt>
      <trkpt lat="43.49728" lon="6.91237">
        <ele>242.4</ele>
      </trkpt>
      <trkpt lat="43.4976" lon="6.91274">
        <ele>240.6</ele>
      </trkpt>
      <trkpt lat="43.49768" lon="6.91345">
        <ele>258.5</ele>
      </trkpt>
      <trkpt lat="43.49889" lon="6.91479">
        <ele>252.1</ele>
      </trkpt>
      <trkpt lat="43.49868" lon="6.91549">
        <ele>254.8</ele>
      </trkpt>
      <trkpt lat="43.49711" lon="6.91553">
        <ele>248.8</ele>
      </trkpt>
      <trkpt lat="43.49655" lon="6.91679">
        <ele>248.4</ele>
      </trkpt>
      <trkpt lat="43.49684" lon="6.91928">
        <ele>232.5</ele>
      </trkpt>
      <trkpt lat="43.49736" lon="6.91961">
        <ele>238.3</ele>
      </trkpt>
      <trkpt lat="43.49746" lon="6.92054">
        <ele>233.7</ele>
      </trkpt>
      <trkpt lat="43.49825" lon="6.92199">
        <ele>233.5</ele>
      </trkpt>
      <trkpt lat="43.49771" lon="6.92199">
        <ele>234</ele>
      </trkpt>
      <trkpt lat="43.49714" lon="6.92036">
        <ele>222.2</ele>
      </trkpt>
      <trkpt lat="43.49601" lon="6.91898">
        <ele>206.1</ele>
      </trkpt>
      <trkpt lat="43.49442" lon="6.92002">
        <ele>190.6</ele>
      </trkpt>
      <trkpt lat="43.49431" lon="6.92047">
        <ele>186.9</ele>
      </trkpt>
      <trkpt lat="43.49445" lon="6.92106">
        <ele>185.6</ele>
      </trkpt>
      <trkpt lat="43.4948" lon="6.9211">
        <ele>179.2</ele>
      </trkpt>
      <trkpt lat="43.49485" lon="6.92181">
        <ele>182.1</ele>
      </trkpt>
      <trkpt lat="43.49552" lon="6.92177">
        <ele>164.8</ele>
      </trkpt>
      <trkpt lat="43.49523" lon="6.92526">
        <ele>155.4</ele>
      </trkpt>
      <trkpt lat="43.49474" lon="6.92552">
        <ele>148.5</ele>
      </trkpt>
      <trkpt lat="43.49426" lon="6.92467">
        <ele>140.6</ele>
      </trkpt>
      <trkpt lat="43.49423" lon="6.92626">
        <ele>109.3</ele>
      </trkpt>
      <trkpt lat="43.49474" lon="6.92656">
        <ele>129.7</ele>
      </trkpt>
      <trkpt lat="43.49536" lon="6.92898">
        <ele>123.3</ele>
      </trkpt>
      <trkpt lat="43.49571" lon="6.92927">
        <ele>113</ele>
      </trkpt>
      <trkpt lat="43.49585" lon="6.92994">
        <ele>110.1</ele>
      </trkpt>
      <trkpt lat="43.49639" lon="6.93042">
        <ele>102.2</ele>
      </trkpt>
      <trkpt lat="43.49601" lon="6.93098">
        <ele>114.9</ele>
      </trkpt>
      <trkpt lat="43.49598" lon="6.93195">
        <ele>87.7</ele>
      </trkpt>
      <trkpt lat="43.4966" lon="6.93477">
        <ele>79.3</ele>
      </trkpt>
      <trkpt lat="43.49627" lon="6.93639">
        <ele>61.6</ele>
      </trkpt>
      <trkpt lat="43.49718" lon="6.93572">
        <ele>63.8</ele>
      </trkpt>
      <trkpt lat="43.49783" lon="6.93616">
        <ele>56.7</ele>
      </trkpt>
      <trkpt lat="43.49788" lon="6.93676">
        <ele>74</ele>
      </trkpt>
      <trkpt lat="43.5037" lon="6.93732">
        <ele>18.5</ele>
      </trkpt>
    </trkseg>
  </trk>
</gpx>